Time;durP1;ratioP1;P1;durP2;ratioP2;P2;SDS_P1;SDS_P2;PMS_P1;PMS_P2;Temp;Humidity;BMP_temperature;BMP_pressure;BME280_temperature;BME280_humidity;BME280_pressure;Samples;Min_cycle;Max_cycle;Signal;HPM_P1;HPM_P2
2022/12/26 00:00:30;;;;;;;59.27;24.50;;;;;;;3.15;100.00;100150.16;4213262;28;20228;-75
2022/12/26 00:02:57;;;;;;;57.73;25.20;;;;;;;3.21;100.00;100157.63;4197860;28;20405;-73
2022/12/26 00:05:24;;;;;;;57.33;25.10;;;;;;;3.29;100.00;100165.81;4205425;28;23600;-73
2022/12/26 00:07:50;;;;;;;58.87;24.07;;;;;;;3.29;100.00;100160.56;4214731;28;21670;-74
2022/12/26 00:10:17;;;;;;;58.37;24.67;;;;;;;3.28;100.00;100148.38;4207716;28;20243;-76
2022/12/26 00:12:44;;;;;;;59.40;24.83;;;;;;;3.30;100.00;100153.50;4195565;28;25342;-74
2022/12/26 00:15:11;;;;;;;65.37;26.30;;;;;;;3.28;100.00;100153.63;4210549;28;20380;-73
2022/12/26 00:17:37;;;;;;;55.53;24.43;;;;;;;3.22;100.00;100147.94;4208497;28;21807;-72
2022/12/26 00:20:04;;;;;;;63.83;25.57;;;;;;;3.27;100.00;100149.31;4191729;28;23019;-72
2022/12/26 00:22:31;;;;;;;59.40;25.27;;;;;;;3.22;100.00;100140.91;4201251;28;20251;-74
2022/12/26 00:24:57;;;;;;;63.87;25.97;;;;;;;3.24;100.00;100149.53;4217034;28;21477;-78
2022/12/26 00:27:24;;;;;;;65.07;26.93;;;;;;;3.21;100.00;100146.25;4200414;28;20353;-72
2022/12/26 00:29:50;;;;;;;66.70;25.17;;;;;;;3.24;100.00;100146.91;4191788;28;20641;-72
2022/12/26 00:32:17;;;;;;;66.00;26.53;;;;;;;3.13;100.00;100133.63;4200841;28;21782;-72
2022/12/26 00:34:44;;;;;;;63.17;25.27;;;;;;;3.12;100.00;100130.19;4210165;28;20238;-76
2022/12/26 00:37:11;;;;;;;64.20;26.57;;;;;;;3.10;100.00;100128.59;4182707;28;20485;-73
2022/12/26 00:39:37;;;;;;;62.43;26.70;;;;;;;3.25;100.00;100127.53;4188892;28;20233;-76
2022/12/26 00:42:03;;;;;;;59.70;25.77;;;;;;;3.22;100.00;100132.19;4214699;28;21658;-75
2022/12/26 00:44:30;;;;;;;65.80;27.77;;;;;;;3.29;100.00;100133.44;4205465;28;20260;-78
2022/12/26 00:46:57;;;;;;;61.93;27.23;;;;;;;3.25;100.00;100140.69;4204517;28;21893;-75
2022/12/26 00:49:23;;;;;;;73.63;29.07;;;;;;;3.29;100.00;100147.41;4217810;28;20232;-75
2022/12/26 00:51:50;;;;;;;67.20;27.20;;;;;;;3.24;100.00;100135.53;4201267;28;20240;-75
2022/12/26 00:54:17;;;;;;;68.57;29.07;;;;;;;3.30;100.00;100146.50;4209317;28;21463;-74
2022/12/26 00:56:45;;;;;;;66.20;28.83;;;;;;;3.35;100.00;100139.13;4223611;28;20403;-73
2022/12/26 00:59:12;;;;;;;72.27;28.63;;;;;;;3.35;100.00;100139.13;4209582;28;20289;-73
2022/12/26 01:01:39;;;;;;;63.77;28.57;;;;;;;3.47;100.00;100120.81;4207167;28;20932;-74
2022/12/26 01:04:05;;;;;;;70.93;29.27;;;;;;;3.36;100.00;100109.22;4205457;28;20236;-73
2022/12/26 01:06:32;;;;;;;71.50;29.27;;;;;;;3.32;100.00;100102.50;4214169;28;21352;-75
2022/12/26 01:08:58;;;;;;;75.03;30.50;;;;;;;3.31;100.00;100106.09;4196626;28;20405;-74
2022/12/26 01:11:40;;;;;;;74.63;29.40;;;;;;;3.35;100.00;100104.94;4218577;28;20237;-76
2022/12/26 01:14:12;;;;;;;75.83;29.60;;;;;;;3.24;100.00;100098.72;4213060;28;20278;-75
2022/12/26 01:16:40;;;;;;;69.83;29.10;;;;;;;3.25;100.00;100085.47;4210502;28;21284;-75
2022/12/26 01:19:07;;;;;;;74.00;30.80;;;;;;;3.31;100.00;100074.53;4189659;28;23438;-73
2022/12/26 01:21:34;;;;;;;71.80;29.07;;;;;;;3.25;100.00;100080.19;4192518;28;20632;-74
2022/12/26 01:24:00;;;;;;;69.70;29.27;;;;;;;3.26;100.00;100086.31;4206420;28;20252;-74
2022/12/26 01:26:27;;;;;;;75.43;30.33;;;;;;;3.23;100.00;100078.63;4200560;28;20633;-72
2022/12/26 01:28:54;;;;;;;77.67;30.47;;;;;;;3.28;100.00;100080.00;4216997;28;26318;-72
2022/12/26 01:31:21;;;;;;;68.03;28.87;;;;;;;3.25;100.00;100074.09;4199204;28;20267;-77
2022/12/26 01:33:48;;;;;;;71.37;29.80;;;;;;;3.24;100.00;100078.53;4197404;28;20236;-75
2022/12/26 01:36:16;;;;;;;72.23;28.97;;;;;;;3.31;100.00;100078.94;4200642;28;23327;-74
2022/12/26 01:38:42;;;;;;;79.53;30.43;;;;;;;3.31;100.00;100081.59;4197714;28;20681;-74
2022/12/26 01:41:16;;;;;;;74.07;29.53;;;;;;;3.42;100.00;100080.81;4197604;28;21209;-78
2022/12/26 01:43:50;;;;;;;69.53;29.40;;;;;;;3.49;100.00;100087.31;4215273;28;20231;-76
2022/12/26 01:46:21;;;;;;;67.23;29.00;;;;;;;3.57;100.00;100085.00;4195304;28;21352;-72
2022/12/26 01:48:47;;;;;;;70.97;28.63;;;;;;;3.54;100.00;100080.81;4206344;28;21205;-75
2022/12/26 01:51:14;;;;;;;62.83;27.13;;;;;;;3.43;100.00;100074.63;4202241;28;20231;-76
2022/12/26 01:53:49;;;;;;;67.30;28.27;;;;;;;3.41;100.00;100066.00;4207020;28;20233;-75
2022/12/26 01:56:29;;;;;;;72.30;28.57;;;;;;;3.31;100.00;100076.31;4191768;28;22446;-72
2022/12/26 01:59:20;;;;;;;69.53;27.93;;;;;;;3.34;100.00;100062.94;4206070;28;20312;-75
2022/12/26 02:01:49;;;;;;;64.50;27.40;;;;;;;3.33;100.00;100062.13;4218093;28;20245;-72
2022/12/26 02:07:06;;;;;;;70.03;28.60;;;;;;;3.35;100.00;100059.38;4192952;28;21872;-72
2022/12/26 02:09:33;;;;;;;67.97;27.03;;;;;;;3.46;100.00;100066.50;4207431;28;20243;-72
2022/12/26 02:12:15;;;;;;;58.00;26.30;;;;;;;3.49;100.00;100061.00;4199273;28;20563;-73
2022/12/26 02:15:03;;;;;;;64.90;27.93;;;;;;;3.35;100.00;100054.97;4202476;28;20360;-77
2022/12/26 02:17:29;;;;;;;62.13;26.37;;;;;;;3.31;100.00;100042.13;4217324;28;20411;-73
2022/12/26 02:20:15;;;;;;;63.33;27.23;;;;;;;3.25;100.00;100032.88;4186242;28;21231;-75
2022/12/26 02:23:19;;;;;;;60.07;26.57;;;;;;;3.23;100.00;100024.28;4211298;28;21469;-74
2022/12/26 02:26:15;;;;;;;62.27;26.13;;;;;;;3.32;100.00;100034.13;4216052;28;20289;-75
2022/12/26 02:28:45;;;;;;;61.63;26.83;;;;;;;3.23;100.00;100024.28;4212704;28;21574;-72
2022/12/26 02:31:18;;;;;;;61.87;27.13;;;;;;;3.27;100.00;100025.72;4199679;28;20239;-73
2022/12/26 02:34:12;;;;;;;63.30;27.17;;;;;;;3.26;100.00;100005.66;4197277;28;20271;-71
2022/12/26 02:37:04;;;;;;;63.33;28.00;;;;;;;3.26;100.00;100000.38;4211534;28;20233;-73
2022/12/26 02:39:36;;;;;;;77.27;30.47;;;;;;;3.21;100.00;99994.63;4214510;28;20248;-74
2022/12/26 02:42:39;;;;;;;72.57;27.80;;;;;;;3.19;100.00;100001.78;4202577;28;20255;-72
2022/12/26 02:48:13;;;;;;;82.47;31.93;;;;;;;3.17;100.00;99978.22;4214189;28;20269;-73
2022/12/26 03:15:00;;;;;;;96.40;36.07;;;;;;;2.97;100.00;99939.34;4202092;28;20440;-74
2022/12/26 03:17:39;;;;;;;89.17;33.97;;;;;;;3.00;100.00;99935.66;4185116;28;21249;-74
2022/12/26 03:20:25;;;;;;;97.80;36.43;;;;;;;2.93;100.00;99928.22;4195572;28;23165;-73
2022/12/26 03:22:58;;;;;;;93.03;35.60;;;;;;;3.03;100.00;99930.19;4171096;28;20250;-73
2022/12/26 03:28:12;;;;;;;95.53;34.63;;;;;;;3.04;100.00;99903.78;4204919;28;20255;-72
2022/12/26 03:30:48;;;;;;;99.20;35.60;;;;;;;3.06;100.00;99906.31;4203844;28;20240;-72
2022/12/26 03:36:05;;;;;;;93.33;35.13;;;;;;;3.02;100.00;99878.56;4470456;22;20260;-76
2022/12/26 03:38:50;;;;;;;91.33;34.43;;;;;;;3.07;100.00;99877.31;4990991;28;20245;-76
2022/12/26 04:20:25;;;;;;;74.83;28.33;;;;;;;3.08;100.00;99804.53;4997516;28;20222;-77
2022/12/26 04:45:48;;;;;;;73.93;27.43;;;;;;;2.95;100.00;99763.38;5009074;28;20234;-79
2022/12/26 04:51:00;;;;;;;69.27;28.10;;;;;;;3.00;100.00;99744.66;4993901;28;20767;-79
2022/12/26 04:53:27;;;;;;;69.27;27.20;;;;;;;3.00;100.00;99742.03;5008505;28;20217;-77
2022/12/26 04:55:53;;;;;;;68.07;27.13;;;;;;;3.07;100.00;99731.91;5008301;28;21355;-76
2022/12/26 04:58:23;;;;;;;75.63;27.90;;;;;;;2.99;100.00;99732.44;5008771;28;20226;-78
2022/12/26 05:00:50;;;;;;;63.50;26.40;;;;;;;3.00;100.00;99730.66;5007913;28;20368;-78
2022/12/26 05:11:34;;;;;;;63.17;25.83;;;;;;;3.01;100.00;99724.47;4995677;28;20228;-78
2022/12/26 05:14:01;;;;;;;57.97;25.40;;;;;;;3.01;100.00;99709.53;4994484;28;20241;-79
2022/12/26 05:30:28;;;;;;;52.93;23.20;;;;;;;2.93;100.00;99654.91;5012531;28;20234;-79
2022/12/26 05:35:39;;;;;;;51.03;21.97;;;;;;;2.94;100.00;99646.06;5012210;28;20250;-77
2022/12/26 05:38:09;;;;;;;46.83;20.73;;;;;;;2.97;100.00;99658.13;5013189;28;20605;-77
2022/12/26 05:40:35;;;;;;;52.50;22.70;;;;;;;2.93;100.00;99670.69;5011408;28;20248;-77
2022/12/26 05:43:02;;;;;;;46.40;20.33;;;;;;;2.96;100.00;99678.31;5011152;28;20222;-78
2022/12/26 05:45:28;;;;;;;48.53;22.10;;;;;;;2.99;100.00;99679.06;4995525;28;20234;-75
2022/12/26 05:47:59;;;;;;;46.83;22.13;;;;;;;2.98;100.00;99682.66;5012719;28;20406;-77
2022/12/26 05:50:26;;;;;;;49.73;20.90;;;;;;;3.04;100.00;99676.91;5012454;28;20226;-77
2022/12/26 05:52:55;;;;;;;44.97;19.57;;;;;;;3.06;100.00;99680.28;5010936;28;20218;-76
2022/12/26 05:55:23;;;;;;;44.90;21.43;;;;;;;3.03;100.00;99675.25;4995205;28;20238;-76
2022/12/26 05:57:50;;;;;;;42.27;19.40;;;;;;;2.99;100.00;99658.03;4991020;28;20237;-75
2022/12/26 06:00:16;;;;;;;40.90;18.63;;;;;;;3.11;100.00;99662.34;5009136;28;20226;-75
2022/12/26 06:02:43;;;;;;;41.33;18.90;;;;;;;3.03;100.00;99654.22;5010543;28;20266;-76
2022/12/26 06:05:10;;;;;;;41.67;19.20;;;;;;;3.02;100.00;99657.78;5011245;28;20253;-75
2022/12/26 06:07:37;;;;;;;40.43;19.20;;;;;;;3.07;100.00;99656.50;5009558;28;20317;-77
2022/12/26 06:10:05;;;;;;;42.10;18.77;;;;;;;3.09;100.00;99670.38;5010891;28;20227;-77
2022/12/26 06:12:33;;;;;;;37.73;17.70;;;;;;;3.13;100.00;99682.31;5010850;28;20595;-76
2022/12/26 06:15:00;;;;;;;38.73;17.80;;;;;;;3.08;100.00;99686.25;5012004;28;20222;-76
2022/12/26 06:17:26;;;;;;;38.80;16.70;;;;;;;3.23;100.00;99703.50;4996458;28;20257;-77
2022/12/26 06:19:53;;;;;;;38.30;17.50;;;;;;;3.25;100.00;99706.84;4357357;28;20254;-74
2022/12/26 06:22:19;;;;;;;35.20;16.50;;;;;;;3.24;100.00;99701.72;4208634;28;21666;-76
2022/12/26 06:24:46;;;;;;;34.80;17.93;;;;;;;3.19;100.00;99681.03;4195896;28;20310;-76
2022/12/26 06:27:13;;;;;;;37.43;17.77;;;;;;;3.13;100.00;99660.44;4206806;28;20911;-72
2022/12/26 06:29:39;;;;;;;37.00;16.47;;;;;;;3.04;100.00;99632.22;4213312;28;20236;-76
2022/12/26 06:32:06;;;;;;;34.63;16.60;;;;;;;2.97;100.00;99618.72;4206426;28;20229;-74
2022/12/26 06:34:32;;;;;;;32.23;16.40;;;;;;;2.98;100.00;99593.31;4213100;28;20299;-73
2022/12/26 06:36:59;;;;;;;39.17;17.93;;;;;;;3.00;100.00;99607.13;4212491;28;20237;-76
2022/12/26 06:39:25;;;;;;;33.03;17.37;;;;;;;3.01;100.00;99603.56;4207915;28;20626;-74
2022/12/26 06:41:52;;;;;;;32.10;17.03;;;;;;;3.11;100.00;99613.28;4215980;28;20232;-72
2022/12/26 06:44:19;;;;;;;38.50;18.50;;;;;;;3.12;100.00;99595.69;4208300;28;21033;-74
2022/12/26 06:46:45;;;;;;;33.83;18.40;;;;;;;3.06;100.00;99598.78;4202762;28;20321;-75
2022/12/26 06:49:12;;;;;;;37.80;17.53;;;;;;;3.00;100.00;99594.84;4213042;28;20228;-74
2022/12/26 06:51:39;;;;;;;37.40;18.00;;;;;;;3.00;100.00;99596.63;4208350;28;20296;-78
2022/12/26 06:54:06;;;;;;;39.23;19.83;;;;;;;2.98;100.00;99602.00;4206080;28;25986;-77
2022/12/26 06:56:33;;;;;;;40.17;19.57;;;;;;;3.11;100.00;99588.75;4207884;28;20308;-75
2022/12/26 06:59:04;;;;;;;41.90;20.30;;;;;;;3.07;100.00;99597.84;4230502;28;20316;-74
2022/12/26 07:01:32;;;;;;;36.10;19.77;;;;;;;3.13;100.00;99597.34;4211131;28;20233;-75
2022/12/26 07:04:00;;;;;;;37.73;19.43;;;;;;;3.21;100.00;99597.63;4204758;28;20239;-76
2022/12/26 07:06:35;;;;;;;38.90;19.30;;;;;;;3.19;100.00;99581.13;4198259;28;20392;-75
2022/12/26 07:09:13;;;;;;;44.23;21.13;;;;;;;3.15;100.00;99558.66;4207519;28;20238;-74
2022/12/26 07:11:41;;;;;;;38.63;20.33;;;;;;;3.18;100.00;99563.66;4204997;28;22031;-74
2022/12/26 07:14:08;;;;;;;40.00;20.53;;;;;;;3.13;100.00;99550.03;4200212;28;21220;-77
2022/12/26 07:16:35;;;;;;;40.50;19.60;;;;;;;3.12;100.00;99556.28;4213144;28;20347;-74
2022/12/26 07:19:03;;;;;;;40.80;20.07;;;;;;;3.07;100.00;99558.44;4199404;28;20401;-73
2022/12/26 07:21:29;;;;;;;39.63;19.50;;;;;;;3.11;100.00;99571.22;4215490;28;21224;-75
2022/12/26 07:24:06;;;;;;;38.40;19.43;;;;;;;3.19;100.00;99565.34;4205884;28;20282;-73
2022/12/26 07:26:32;;;;;;;42.83;20.43;;;;;;;3.19;100.00;99562.72;4202921;28;20236;-75
2022/12/26 07:28:59;;;;;;;41.00;18.43;;;;;;;3.26;100.00;99560.47;4212664;28;20285;-74
2022/12/26 07:31:29;;;;;;;37.63;19.40;;;;;;;3.27;100.00;99552.44;4211242;28;21844;-74
2022/12/26 07:33:56;;;;;;;33.60;17.90;;;;;;;3.28;100.00;99540.16;4241607;28;20248;-75
2022/12/26 07:36:23;;;;;;;42.60;19.43;;;;;;;3.31;100.00;99553.88;4263509;28;20352;-73
2022/12/26 07:38:51;;;;;;;40.33;18.30;;;;;;;3.36;100.00;99566.66;4246634;28;20338;-75
2022/12/26 07:44:04;;;;;;;36.63;17.30;;;;;;;3.33;100.00;99569.53;4228424;28;20234;-74
2022/12/26 07:46:32;;;;;;;33.50;16.77;;;;;;;3.37;100.00;99571.81;4243432;28;20382;-72
2022/12/26 07:48:58;;;;;;;34.97;16.67;;;;;;;3.38;100.00;99576.09;4212805;28;22427;-73
2022/12/26 07:51:25;;;;;;;36.97;17.53;;;;;;;3.39;100.00;99579.56;4221359;28;20726;-74
2022/12/26 07:53:52;;;;;;;34.00;16.67;;;;;;;3.44;100.00;99559.03;4226327;28;20242;-70
2022/12/26 07:56:21;;;;;;;36.70;16.97;;;;;;;3.36;100.00;99562.22;4208509;28;20232;-72
2022/12/26 07:58:48;;;;;;;32.43;16.60;;;;;;;3.36;100.00;99577.19;4229073;28;20336;-73
2022/12/26 08:01:15;;;;;;;34.33;17.10;;;;;;;3.47;100.00;99547.41;4216307;28;20240;-72
2022/12/26 08:03:42;;;;;;;40.50;18.87;;;;;;;3.37;100.00;99542.88;4228095;28;20233;-75
2022/12/26 08:06:10;;;;;;;33.40;17.80;;;;;;;3.38;100.00;99543.72;4211968;28;20260;-72
2022/12/26 08:08:37;;;;;;;35.97;17.43;;;;;;;3.40;100.00;99543.59;4214259;28;20224;-74
2022/12/26 08:11:05;;;;;;;33.53;17.50;;;;;;;3.45;100.00;99552.78;4203914;28;20313;-74
2022/12/26 08:13:32;;;;;;;38.17;18.27;;;;;;;3.49;100.00;99556.84;4227308;28;25523;-74
2022/12/26 08:16:03;;;;;;;36.93;19.47;;;;;;;3.58;100.00;99564.03;4213457;28;23003;-70
2022/12/26 08:18:30;;;;;;;33.10;17.70;;;;;;;3.68;100.00;99566.75;4212909;28;20256;-74
2022/12/26 08:20:57;;;;;;;35.30;18.10;;;;;;;3.60;100.00;99548.09;4218547;28;20237;-74
2022/12/26 08:23:24;;;;;;;34.27;17.27;;;;;;;3.73;100.00;99543.53;4242433;28;23638;-73
2022/12/26 08:25:50;;;;;;;37.47;18.03;;;;;;;3.83;100.00;99533.09;4234964;28;20691;-76
2022/12/26 08:28:18;;;;;;;34.93;18.10;;;;;;;3.83;100.00;99522.56;4227239;28;23838;-72
2022/12/26 08:30:45;;;;;;;39.00;18.07;;;;;;;3.86;100.00;99537.28;4213764;28;22409;-72
2022/12/26 08:33:12;;;;;;;35.53;17.67;;;;;;;3.94;100.00;99521.72;4206948;28;20237;-72
2022/12/26 08:35:39;;;;;;;33.10;17.50;;;;;;;3.95;100.00;99523.38;4213224;28;20561;-76
2022/12/26 08:38:07;;;;;;;34.17;17.63;;;;;;;3.94;100.00;99516.44;4216588;28;20354;-74
2022/12/26 08:40:33;;;;;;;32.90;17.93;;;;;;;3.95;100.00;99518.09;4217832;28;22238;-73
2022/12/26 08:43:10;;;;;;;35.70;18.07;;;;;;;4.05;100.00;99520.81;4211593;28;20664;-73
2022/12/26 08:46:04;;;;;;;34.00;17.83;;;;;;;4.12;100.00;99521.97;4224738;28;20225;-72
2022/12/26 08:48:30;;;;;;;36.40;17.50;;;;;;;4.12;100.00;99516.72;4229429;28;21064;-73
2022/12/26 08:51:03;;;;;;;35.90;17.97;;;;;;;4.14;100.00;99499.81;4215117;28;20952;-73
2022/12/26 08:53:32;;;;;;;43.87;19.10;;;;;;;4.14;100.00;99493.72;4244115;28;21040;-72
2022/12/26 08:55:58;;;;;;;36.40;18.17;;;;;;;4.23;100.00;99491.16;4212170;28;20768;-71
2022/12/26 08:58:26;;;;;;;39.30;18.70;;;;;;;4.29;100.00;99502.19;4204624;28;20275;-70
2022/12/26 09:00:53;;;;;;;42.33;19.57;;;;;;;4.33;100.00;99493.88;4203701;28;21021;-73
2022/12/26 09:03:21;;;;;;;40.60;19.30;;;;;;;4.37;100.00;99497.09;4210001;28;20520;-72
2022/12/26 09:05:48;;;;;;;33.23;17.93;;;;;;;4.49;100.00;99498.69;4205256;28;20232;-69
2022/12/26 09:08:14;;;;;;;35.33;18.57;;;;;;;4.45;100.00;99502.56;4211641;28;20855;-71
2022/12/26 09:10:41;;;;;;;43.07;17.80;;;;;;;4.57;100.00;99495.41;4201954;28;20231;-71
2022/12/26 09:13:07;;;;;;;36.43;18.33;;;;;;;4.58;100.00;99494.44;4199730;28;20882;-71
2022/12/26 09:15:34;;;;;;;40.00;17.83;;;;;;;4.55;100.00;99498.19;4210342;28;21847;-69
2022/12/26 09:18:01;;;;;;;40.47;18.83;;;;;;;4.59;100.00;99483.78;4216384;28;20240;-72
2022/12/26 09:20:27;;;;;;;36.13;18.50;;;;;;;4.55;100.00;99487.63;4218368;28;25649;-73
2022/12/26 09:22:54;;;;;;;38.40;18.30;;;;;;;4.71;100.00;99486.34;4222114;28;20526;-71
2022/12/26 09:25:23;;;;;;;37.67;18.60;;;;;;;4.68;100.00;99481.31;4227493;28;20908;-69
2022/12/26 09:27:52;;;;;;;36.17;18.00;;;;;;;4.60;100.00;99477.53;4219389;28;20253;-70
2022/12/26 09:30:24;;;;;;;39.90;19.40;;;;;;;4.60;100.00;99479.34;4215397;28;22058;-74
2022/12/26 09:32:52;;;;;;;45.33;18.53;;;;;;;4.69;100.00;99473.28;4215016;28;20281;-75
2022/12/26 09:35:21;;;;;;;40.77;19.00;;;;;;;4.74;100.00;99460.53;4231277;28;21423;-72
2022/12/26 09:37:47;;;;;;;37.80;18.37;;;;;;;4.76;100.00;99463.06;4205762;28;20238;-73
2022/12/26 09:40:23;;;;;;;34.27;17.73;;;;;;;4.71;100.00;99460.00;4202594;28;20794;-76
2022/12/26 09:43:03;;;;;;;41.67;18.83;;;;;;;4.74;100.00;99450.00;4234587;28;21223;-76
2022/12/26 09:45:42;;;;;;;35.57;18.83;;;;;;;4.80;100.00;99457.41;4207779;28;21833;-76
2022/12/26 09:48:13;;;;;;;40.00;18.50;;;;;;;4.82;100.00;99462.50;4232785;28;20236;-75
2022/12/26 09:50:39;;;;;;;36.47;18.17;;;;;;;4.80;100.00;99453.91;4219214;28;21072;-78
2022/12/26 09:53:14;;;;;;;35.87;18.80;;;;;;;4.86;100.00;99461.28;4217953;28;21227;-73
2022/12/26 09:56:00;;;;;;;37.63;18.20;;;;;;;5.01;100.00;99462.63;4213900;28;20246;-71
2022/12/26 09:58:40;;;;;;;36.40;17.17;;;;;;;5.08;100.00;99461.13;4206980;28;20393;-77
2022/12/26 10:01:19;;;;;;;40.50;18.30;;;;;;;5.15;100.00;99456.13;4215188;28;20231;-76
2022/12/26 10:03:51;;;;;;;37.07;18.03;;;;;;;5.27;100.00;99460.34;4221710;28;20235;-77
2022/12/26 10:06:19;;;;;;;37.10;18.50;;;;;;;5.31;100.00;99458.25;4208473;28;20300;-73
2022/12/26 10:08:56;;;;;;;36.97;18.90;;;;;;;5.35;100.00;99450.91;4214396;28;20247;-76
2022/12/26 10:11:34;;;;;;;36.83;18.83;;;;;;;5.39;100.00;99445.22;4229990;28;20338;-75
2022/12/26 10:14:32;;;;;;;44.83;19.17;;;;;;;5.46;100.00;99454.25;4212765;28;20663;-77
2022/12/26 10:17:13;;;;;;;38.23;18.87;;;;;;;5.56;100.00;99448.16;4227275;28;20228;-74
2022/12/26 10:19:51;;;;;;;38.37;17.57;;;;;;;5.61;100.00;99438.84;4232066;28;25647;-78
2022/12/26 10:22:33;;;;;;;33.37;17.50;;;;;;;5.70;100.00;99447.75;4219983;28;20406;-75
2022/12/26 10:25:02;;;;;;;36.07;18.77;;;;;;;5.72;100.00;99441.34;4213767;28;21931;-71
2022/12/26 10:27:38;;;;;;;39.20;18.97;;;;;;;5.82;100.00;99443.16;4231485;28;21100;-74
2022/12/26 10:30:06;;;;;;;34.13;17.70;;;;;;;5.90;100.00;99440.69;4225558;28;20233;-73
2022/12/26 10:32:38;;;;;;;40.97;19.03;;;;;;;5.94;100.00;99439.44;4221683;28;20480;-74
2022/12/26 10:35:19;;;;;;;38.47;18.37;;;;;;;6.12;100.00;99423.72;4255274;28;20257;-75
2022/12/26 10:37:47;;;;;;;36.53;18.47;;;;;;;6.22;100.00;99432.47;4244660;28;20393;-74
2022/12/26 10:40:22;;;;;;;33.27;17.33;;;;;;;6.41;100.00;99428.09;4223177;28;20320;-72
2022/12/26 10:42:52;;;;;;;37.13;17.33;;;;;;;6.43;100.00;99439.38;4234631;28;20240;-73
2022/12/26 10:45:28;;;;;;;38.10;18.53;;;;;;;6.45;100.00;99422.41;4243250;28;22186;-77
2022/12/26 10:47:55;;;;;;;36.90;17.10;;;;;;;6.61;100.00;99413.88;4223489;28;20309;-75
2022/12/26 10:50:24;;;;;;;33.63;17.30;;;;;;;6.60;100.00;99420.13;4238283;28;20232;-75
2022/12/26 10:52:54;;;;;;;35.97;17.50;;;;;;;6.80;100.00;99399.72;4204705;28;22236;-73
2022/12/26 10:55:26;;;;;;;34.20;17.27;;;;;;;6.94;100.00;99398.41;4242466;28;21839;-76
2022/12/26 10:58:20;;;;;;;36.53;16.67;;;;;;;6.94;100.00;99416.94;4223806;28;20286;-75
2022/12/26 11:00:47;;;;;;;31.60;17.20;;;;;;;7.00;100.00;99411.06;4218249;28;20702;-72
2022/12/26 11:03:16;;;;;;;44.63;20.20;;;;;;;7.01;100.00;99412.72;4223669;28;20464;-74
2022/12/26 11:05:51;;;;;;;37.60;18.73;;;;;;;7.09;100.00;99410.16;4250562;28;20263;-71
2022/12/26 11:08:45;;;;;;;31.10;16.47;;;;;;;7.32;100.00;99401.81;4235134;28;20246;-71
2022/12/26 11:11:44;;;;;;;35.33;16.50;;;;;;;7.33;100.00;99409.59;4248348;28;21604;-70
2022/12/26 11:14:31;;;;;;;31.87;16.60;;;;;;;7.48;100.00;99412.56;4235618;28;26473;-78
2022/12/26 11:17:07;;;;;;;34.70;16.63;;;;;;;7.55;100.00;99405.69;4237690;28;21547;-74
2022/12/26 11:19:37;;;;;;;35.43;16.70;;;;;;;7.60;100.00;99400.75;4230551;28;20228;-72
2022/12/26 11:22:26;;;;;;;34.27;16.07;;;;;;;7.71;100.00;99401.53;4242385;28;20317;-69
2022/12/26 11:25:08;;;;;;;30.23;15.27;;;;;;;7.76;100.00;99391.31;4221113;28;20237;-69
2022/12/26 11:27:43;;;;;;;28.17;14.80;;;;;;;7.93;100.00;99408.16;4240244;28;20742;-71
2022/12/26 11:30:12;;;;;;;29.87;14.57;;;;;;;7.94;100.00;99399.25;4228358;28;21078;-73
2022/12/26 11:32:41;;;;;;;27.90;12.53;;;;;;;8.06;100.00;99402.47;4231553;28;20241;-71
2022/12/26 11:35:27;;;;;;;30.43;12.50;;;;;;;8.21;100.00;99400.91;4228888;28;21662;-77
2022/12/26 11:37:56;;;;;;;26.60;11.80;;;;;;;8.38;100.00;99402.69;4250279;28;21417;-74
2022/12/26 11:40:33;;;;;;;20.17;11.67;;;;;;;8.31;100.00;99396.38;4222924;28;20237;-71
2022/12/26 11:43:03;;;;;;;24.63;11.63;;;;;;;8.48;100.00;99396.50;4221465;28;20629;-73
2022/12/26 11:45:31;;;;;;;19.60;10.57;;;;;;;8.56;100.00;99383.25;4226512;28;20417;-69
2022/12/26 11:48:07;;;;;;;24.10;10.30;;;;;;;8.63;100.00;99389.59;4240156;28;20723;-71
2022/12/26 11:50:43;;;;;;;27.17;11.53;;;;;;;8.85;100.00;99383.75;4252468;28;22342;-75
2022/12/26 11:53:16;;;;;;;24.17;10.93;;;;;;;9.00;100.00;99391.09;4286499;28;26178;-73
2022/12/26 11:55:43;;;;;;;19.00;9.83;;;;;;;9.08;100.00;99378.69;4254230;28;20356;-74
2022/12/26 11:58:28;;;;;;;21.10;9.97;;;;;;;9.29;100.00;99380.91;4287200;28;21643;-75
2022/12/26 12:00:57;;;;;;;25.23;11.53;;;;;;;9.28;100.00;99373.91;4239624;28;20250;-76
2022/12/26 12:03:31;;;;;;;20.23;9.90;;;;;;;9.32;100.00;99370.91;4294851;28;20888;-73
2022/12/26 12:06:15;;;;;;;20.30;9.83;;;;;;;9.43;100.00;99375.91;4289551;28;20370;-71
2022/12/26 12:08:56;;;;;;;19.13;9.27;;;;;;;9.35;100.00;99367.97;4274796;28;21274;-73
2022/12/26 12:11:39;;;;;;;17.90;9.43;;;;;;;9.34;100.00;99372.44;4227302;28;20328;-73
2022/12/26 12:14:09;;;;;;;20.30;10.43;;;;;;;9.31;100.00;99378.06;4231836;28;20231;-70
2022/12/26 12:17:04;;;;;;;19.23;9.77;;;;;;;9.16;100.00;99375.22;4252976;28;21816;-73
2022/12/26 12:19:49;;;;;;;26.20;10.93;;;;;;;9.15;100.00;99368.22;4247271;28;20241;-73
2022/12/26 12:22:32;;;;;;;25.97;10.13;;;;;;;9.07;100.00;99376.19;4222200;28;20236;-69
2022/12/26 12:25:23;;;;;;;21.10;11.13;;;;;;;8.87;100.00;99381.75;4209452;28;20691;-73
2022/12/26 12:28:05;;;;;;;33.30;10.90;;;;;;;8.96;100.00;99373.81;4209633;28;21630;-72
2022/12/26 12:30:41;;;;;;;20.43;10.50;;;;;;;9.06;100.00;99375.34;4244463;28;20307;-69
2022/12/26 12:33:14;;;;;;;23.03;10.53;;;;;;;8.99;100.00;99373.50;4221048;28;20859;-73
2022/12/26 12:36:02;;;;;;;19.80;10.30;;;;;;;9.09;100.00;99385.63;4223003;28;20631;-71
2022/12/26 12:38:34;;;;;;;22.60;11.10;;;;;;;9.04;100.00;99376.50;4217192;28;20286;-73
2022/12/26 12:41:19;;;;;;;27.03;12.43;;;;;;;8.99;100.00;99384.09;4224929;28;20390;-72
2022/12/26 12:44:18;;;;;;;21.00;10.63;;;;;;;8.98;100.00;99382.44;4224222;28;20235;-72
2022/12/26 12:47:23;;;;;;;28.37;11.47;;;;;;;8.93;100.00;99384.75;4208360;28;20646;-71
2022/12/26 12:50:07;;;;;;;21.07;11.00;;;;;;;8.88;100.00;99382.59;4225406;28;20722;-72
2022/12/26 12:52:54;;;;;;;23.73;11.57;;;;;;;8.83;100.00;99393.69;4215071;28;22583;-71
2022/12/26 12:55:45;;;;;;;21.37;10.23;;;;;;;8.72;100.00;99401.91;4218876;28;21676;-71
2022/12/26 12:58:51;;;;;;;24.13;11.73;;;;;;;8.69;100.00;99394.28;4224202;28;21470;-69
2022/12/26 13:01:32;;;;;;;25.33;11.47;;;;;;;8.63;100.00;99394.91;4192348;28;20240;-73
2022/12/26 13:04:13;;;;;;;24.03;11.63;;;;;;;8.73;100.00;99389.47;4216267;28;20309;-72
2022/12/26 13:06:43;;;;;;;23.63;12.43;;;;;;;8.74;100.00;99396.47;4226610;28;25916;-70
2022/12/26 13:09:27;;;;;;;24.67;12.23;;;;;;;8.76;100.00;99394.47;4206081;28;20434;-71
2022/12/26 13:12:01;;;;;;;25.27;12.23;;;;;;;8.71;100.00;99389.66;4213753;28;20386;-73
2022/12/26 13:14:55;;;;;;;23.47;11.23;;;;;;;8.71;100.00;99389.66;4225629;28;21890;-70
2022/12/26 13:17:30;;;;;;;25.20;11.80;;;;;;;8.69;100.00;99390.81;4209715;28;20232;-71
2022/12/26 13:20:01;;;;;;;27.77;13.17;;;;;;;8.70;100.00;99398.56;4204340;28;21389;-71
2022/12/26 13:25:31;;;;;;;25.77;11.57;;;;;;;8.65;100.00;99392.94;4322845;28;22760;-70
2022/12/26 13:28:08;;;;;;;22.47;11.30;;;;;;;8.65;100.00;99392.94;4261007;28;20672;-72
2022/12/26 13:30:36;;;;;;;21.83;11.33;;;;;;;8.60;100.00;99392.56;4318397;28;20247;-72
2022/12/26 13:33:03;;;;;;;26.93;11.97;;;;;;;8.58;100.00;99398.03;4261557;28;20237;-71
2022/12/26 13:35:54;;;;;;;22.80;11.40;;;;;;;8.62;100.00;99393.25;4257851;28;20300;-72
2022/12/26 13:38:21;;;;;;;24.90;12.63;;;;;;;8.58;100.00;99397.19;4223187;28;20529;-71
2022/12/26 13:44:23;;;;;;;24.17;11.53;;;;;;;8.56;100.00;99388.56;4222912;28;21860;-72
2022/12/26 13:46:50;;;;;;;24.67;11.77;;;;;;;8.56;100.00;99385.91;4225945;28;20299;-71
2022/12/26 13:49:27;;;;;;;22.63;11.57;;;;;;;8.55;100.00;99387.75;4237973;28;20309;-74
2022/12/26 13:51:59;;;;;;;22.30;9.90;;;;;;;8.57;100.00;99391.06;4226804;28;20337;-73